Centerdale, Iowa
Current Conditions -  °F | °C
As of 2:52 AM on Friday 24 Oct 2014 (Local Time) from KIOW Reporting Station
Moderate Fog Moderate Fog  
Wind Chill: 47°   Ceiling: 100
Heat Index: 47°   Visibility: 0.25mi
Dew Point: 47°   Wind: 3mph
Humidity: 100%   Direction: 270°W
Pressure: 30.06"   Gusts: NA
Location:  41.5542°N, 91.2913°W
Report Text: KIOW 240752Z AUTO 27003KT 1/4SM FG VV001 08/08 A3006 RMK AO2 SLP181 T00830083
Loading
Personal Weather Stations






























Interactive Weather Map New forecast layout! Learn more

10-Day Weather Forecast

Advertisements
Track Severe Weather on mobile